Time;durP1;ratioP1;P1;durP2;ratioP2;P2;SDS_P1;SDS_P2;PMS_P1;PMS_P2;Temp;Humidity;BMP_temperature;BMP_pressure;BME280_temperature;BME280_humidity;BME280_pressure;Samples;Min_cycle;Max_cycle;Signal;HPM_P1;HPM_P2
2022/11/21 00:00:14;;;;;;;;;;;17.80;92.30;;;;;;5095129;28;19908;-38
2022/11/21 00:02:39;;;;;;;;;;;17.80;92.30;;;;;;5095272;28;19958;-41
2022/11/21 00:05:05;;;;;;;;;;;17.80;92.20;;;;;;5095253;28;19912;-39
2022/11/21 00:07:30;;;;;;;;;;;17.80;92.30;;;;;;5095133;28;20421;-38
2022/11/21 00:09:56;;;;;;;;;;;17.80;92.30;;;;;;5086961;28;20413;-38
2022/11/21 00:12:21;;;;;;;;;;;17.80;92.30;;;;;;5089473;28;19909;-39
2022/11/21 00:14:47;;;;;;;;;;;17.80;92.50;;;;;;5094058;28;19912;-39
2022/11/21 00:17:12;;;;;;;;;;;17.80;92.60;;;;;;5091193;28;19995;-39
2022/11/21 00:19:37;;;;;;;;;;;17.80;92.70;;;;;;5090511;28;19908;-39
2022/11/21 00:22:03;;;;;;;;;;;17.80;92.70;;;;;;5093838;28;20912;-41
2022/11/21 00:24:28;;;;;;;;;;;17.80;92.70;;;;;;5093289;28;19959;-39
2022/11/21 00:26:54;;;;;;;;;;;17.70;92.80;;;;;;5088268;28;20006;-40
2022/11/21 00:29:19;;;;;;;;;;;17.70;92.80;;;;;;5093461;28;19904;-38
2022/11/21 00:31:45;;;;;;;;;;;17.80;92.80;;;;;;5093429;28;20308;-39
2022/11/21 00:34:10;;;;;;;;;;;17.70;92.80;;;;;;5093441;28;19926;-40
2022/11/21 00:36:36;;;;;;;;;;;17.70;92.80;;;;;;5075138;28;19911;-39
2022/11/21 00:39:01;;;;;;;;;;;17.70;92.80;;;;;;5093239;28;19916;-39
2022/11/21 00:41:27;;;;;;;;;;;17.70;92.90;;;;;;5093154;28;20381;-39
2022/11/21 00:43:52;;;;;;;;;;;17.70;92.90;;;;;;5092896;28;20213;-40
2022/11/21 00:46:18;;;;;;;;;;;17.70;92.90;;;;;;5085240;28;19924;-39
2022/11/21 00:48:43;;;;;;;;;;;17.70;92.90;;;;;;5073603;28;20279;-41
2022/11/21 00:51:08;;;;;;;;;;;17.60;92.90;;;;;;5093548;28;19915;-39
2022/11/21 00:53:34;;;;;;;;;;;17.70;93.00;;;;;;5094115;28;20396;-38
2022/11/21 00:55:59;;;;;;;;;;;17.60;92.90;;;;;;5093521;28;19909;-39
2022/11/21 00:58:25;;;;;;;;;;;17.70;92.90;;;;;;5090448;28;19908;-39
2022/11/21 01:00:51;;;;;;;;;;;17.60;92.90;;;;;;5089161;28;19915;-39
2022/11/21 01:03:16;;;;;;;;;;;17.60;93.00;;;;;;5092953;28;20306;-39
2022/11/21 01:05:42;;;;;;;;;;;17.60;93.00;;;;;;5092468;28;19911;-39
2022/11/21 01:08:07;;;;;;;;;;;17.60;92.90;;;;;;5092666;28;19947;-38
2022/11/21 01:10:34;;;;;;;;;;;17.60;93.00;;;;;;5092705;28;19908;-38
2022/11/21 01:12:59;;;;;;;;;;;17.60;93.00;;;;;;5092700;28;19938;-39
2022/11/21 01:15:25;;;;;;;;;;;17.70;93.00;;;;;;5089251;28;19912;-39
2022/11/21 01:17:50;;;;;;;;;;;17.60;92.90;;;;;;5092448;28;19966;-39
2022/11/21 01:20:18;;;;;;;;;;;17.60;93.00;;;;;;5095536;28;20228;-39
2022/11/21 01:22:43;;;;;;;;;;;17.60;93.10;;;;;;5092626;28;20003;-40
2022/11/21 01:25:08;;;;;;;;;;;17.60;93.00;;;;;;5092707;28;19916;-43
2022/11/21 01:27:34;;;;;;;;;;;17.60;93.00;;;;;;5105136;28;19915;-38
2022/11/21 01:29:59;;;;;;;;;;;17.40;90.50;;;;;;5112015;28;20721;-39
2022/11/21 01:32:25;;;;;;;;;;;17.50;91.60;;;;;;5114187;28;19912;-39
2022/11/21 01:34:50;;;;;;;;;;;17.60;92.40;;;;;;5109690;28;19978;-39
2022/11/21 01:37:16;;;;;;;;;;;17.60;92.60;;;;;;5114188;28;20252;-39
2022/11/21 01:39:41;;;;;;;;;;;17.60;92.60;;;;;;5096321;28;19939;-42
2022/11/21 01:42:08;;;;;;;;;;;17.70;92.70;;;;;;5105214;28;19923;-39
2022/11/21 01:44:50;;;;;;;;;;;17.70;92.70;;;;;;5118084;28;19940;-39
2022/11/21 01:47:15;;;;;;;;;;;17.70;92.60;;;;;;5114548;28;19923;-38
2022/11/21 01:49:41;;;;;;;;;;;17.70;92.50;;;;;;5116018;28;20269;-39
2022/11/21 01:52:27;;;;;;;;;;;17.70;92.50;;;;;;5118291;28;20346;-38
2022/11/21 01:54:54;;;;;;;;;;;17.70;92.60;;;;;;5114656;28;19935;-39
2022/11/21 01:57:22;;;;;;;;;;;17.70;92.50;;;;;;5111007;28;19919;-39
2022/11/21 01:59:51;;;;;;;;;;;17.70;92.50;;;;;;5115782;28;19912;-37
2022/11/21 02:02:19;;;;;;;;;;;17.80;92.50;;;;;;5114422;28;20246;-37
2022/11/21 02:04:45;;;;;;;;;;;17.80;92.50;;;;;;5115206;28;20011;-37
2022/11/21 02:07:12;;;;;;;;;;;17.80;92.50;;;;;;5117720;28;19915;-37
2022/11/21 02:09:39;;;;;;;;;;;17.80;92.40;;;;;;5115014;28;19924;-37
2022/11/21 02:12:10;;;;;;;;;;;17.80;92.40;;;;;;5117805;28;20014;-38
2022/11/21 02:14:37;;;;;;;;;;;17.80;92.30;;;;;;5108679;28;19979;-44
2022/11/21 02:17:04;;;;;;;;;;;17.80;92.40;;;;;;5113686;28;19918;-38
2022/11/21 02:19:35;;;;;;;;;;;17.80;92.30;;;;;;5115092;28;19919;-38
2022/11/21 02:22:06;;;;;;;;;;;17.80;92.40;;;;;;5117790;28;20291;-38
2022/11/21 02:24:38;;;;;;;;;;;17.80;92.40;;;;;;5114929;28;20384;-38
2022/11/21 02:27:04;;;;;;;;;;;17.80;92.40;;;;;;5116374;28;19968;-37
2022/11/21 02:29:29;;;;;;;;;;;17.80;92.40;;;;;;5114661;28;19915;-38
2022/11/21 02:31:58;;;;;;;;;;;17.80;92.40;;;;;;5117229;28;20358;-37
2022/11/21 02:34:23;;;;;;;;;;;17.80;92.40;;;;;;5110542;28;19962;-38
2022/11/21 02:36:49;;;;;;;;;;;17.80;92.50;;;;;;5117385;28;19912;-38
2022/11/21 02:39:19;;;;;;;;;;;17.80;92.40;;;;;;5114825;28;20386;-38
2022/11/21 02:41:48;;;;;;;;;;;17.80;92.40;;;;;;5117445;28;19914;-38
2022/11/21 02:44:18;;;;;;;;;;;17.80;92.50;;;;;;5113904;28;19961;-38
2022/11/21 02:46:49;;;;;;;;;;;17.80;92.50;;;;;;5116943;28;20407;-38
2022/11/21 02:49:18;;;;;;;;;;;17.80;92.50;;;;;;5112427;28;19948;-38
2022/11/21 02:51:43;;;;;;;;;;;17.80;92.50;;;;;;5115991;28;19912;-38
2022/11/21 02:54:09;;;;;;;;;;;17.70;92.50;;;;;;5093832;28;19912;-38
2022/11/21 02:56:34;;;;;;;;;;;17.80;92.60;;;;;;5116736;28;20006;-37
2022/11/21 02:59:00;;;;;;;;;;;17.70;92.60;;;;;;5108827;28;19912;-38
2022/11/21 03:01:25;;;;;;;;;;;17.80;92.60;;;;;;5116677;28;19908;-38
2022/11/21 03:03:51;;;;;;;;;;;17.70;92.70;;;;;;5113362;28;19984;-37
2022/11/21 03:06:16;;;;;;;;;;;17.70;92.70;;;;;;5116587;28;19955;-38
2022/11/21 03:08:42;;;;;;;;;;;17.70;92.60;;;;;;5103355;28;19924;-39
2022/11/21 03:11:07;;;;;;;;;;;17.70;92.60;;;;;;5116517;28;19982;-38
2022/11/21 03:13:32;;;;;;;;;;;17.70;92.70;;;;;;5112849;28;19915;-38
2022/11/21 03:15:58;;;;;;;;;;;17.70;92.60;;;;;;5116416;28;19912;-37
2022/11/21 03:18:23;;;;;;;;;;;17.70;92.60;;;;;;5108580;28;19958;-38
2022/11/21 03:20:49;;;;;;;;;;;17.70;92.60;;;;;;5116389;28;19943;-38
2022/11/21 03:23:14;;;;;;;;;;;17.70;92.60;;;;;;5114169;28;20350;-38
2022/11/21 03:25:40;;;;;;;;;;;17.70;92.60;;;;;;5116490;28;19958;-38
2022/11/21 03:28:06;;;;;;;;;;;17.70;92.60;;;;;;5110700;28;20315;-38
2022/11/21 03:30:31;;;;;;;;;;;17.80;92.60;;;;;;5116376;28;19912;-38
2022/11/21 03:32:57;;;;;;;;;;;17.80;92.50;;;;;;5113240;28;19912;-39
2022/11/21 03:35:22;;;;;;;;;;;17.80;92.60;;;;;;5116302;28;19919;-38
2022/11/21 03:37:48;;;;;;;;;;;17.80;92.50;;;;;;5113920;28;19908;-39
2022/11/21 03:40:14;;;;;;;;;;;17.80;92.50;;;;;;5115955;28;19912;-38
2022/11/21 03:42:39;;;;;;;;;;;17.80;92.50;;;;;;5111070;28;19907;-38
2022/11/21 03:45:05;;;;;;;;;;;17.80;92.50;;;;;;5111582;28;19920;-38
2022/11/21 03:47:31;;;;;;;;;;;17.80;92.50;;;;;;5113570;28;19908;-38
2022/11/21 03:49:57;;;;;;;;;;;17.80;92.60;;;;;;5115976;28;19911;-38
2022/11/21 03:52:22;;;;;;;;;;;17.80;92.60;;;;;;5115453;28;19908;-51
2022/11/21 03:54:48;;;;;;;;;;;17.80;92.60;;;;;;5114279;28;19911;-38
2022/11/21 03:57:13;;;;;;;;;;;17.80;92.60;;;;;;5115949;28;19908;-38
2022/11/21 03:59:38;;;;;;;;;;;17.80;92.60;;;;;;5113149;28;19912;-38
2022/11/21 04:02:04;;;;;;;;;;;17.80;92.80;;;;;;5112159;28;19912;-38
2022/11/21 04:04:29;;;;;;;;;;;17.80;92.50;;;;;;5115686;28;20346;-38
2022/11/21 04:06:55;;;;;;;;;;;17.80;92.50;;;;;;5110040;28;20354;-38
2022/11/21 04:09:20;;;;;;;;;;;17.80;92.50;;;;;;5112991;28;19919;-39
2022/11/21 04:11:46;;;;;;;;;;;17.80;92.40;;;;;;5082850;28;19977;-39
2022/11/21 04:14:11;;;;;;;;;;;17.80;92.50;;;;;;5095145;28;19908;-38
2022/11/21 04:16:37;;;;;;;;;;;17.80;92.40;;;;;;5094723;28;19912;-38
2022/11/21 04:19:02;;;;;;;;;;;17.80;92.40;;;;;;5108822;28;19908;-38
2022/11/21 04:21:28;;;;;;;;;;;17.80;92.40;;;;;;5097137;28;19918;-38
2022/11/21 04:23:53;;;;;;;;;;;17.80;92.40;;;;;;5108578;28;20006;-38
2022/11/21 04:26:19;;;;;;;;;;;17.80;92.40;;;;;;5115546;28;20316;-38
2022/11/21 04:28:44;;;;;;;;;;;17.80;92.40;;;;;;5112512;28;19980;-38
2022/11/21 04:31:09;;;;;;;;;;;17.80;92.40;;;;;;5114892;28;19912;-38
2022/11/21 04:33:35;;;;;;;;;;;17.80;92.40;;;;;;5108511;28;20381;-38
2022/11/21 04:36:00;;;;;;;;;;;17.80;92.50;;;;;;5114821;28;19911;-38
2022/11/21 04:38:26;;;;;;;;;;;17.80;92.50;;;;;;5094645;28;19923;-38
2022/11/21 04:40:51;;;;;;;;;;;17.70;92.50;;;;;;5114647;28;19911;-38
2022/11/21 04:43:17;;;;;;;;;;;17.80;92.60;;;;;;5112405;28;19915;-39
2022/11/21 04:45:43;;;;;;;;;;;17.80;92.50;;;;;;5114982;28;20528;-38
2022/11/21 04:48:09;;;;;;;;;;;17.80;92.60;;;;;;5112548;28;19914;-38
2022/11/21 04:50:34;;;;;;;;;;;17.80;92.50;;;;;;5114599;28;19912;-38
2022/11/21 04:53:00;;;;;;;;;;;17.80;92.50;;;;;;5112088;28;19968;-38
2022/11/21 04:55:28;;;;;;;;;;;17.80;92.60;;;;;;5112727;28;19918;-38
2022/11/21 04:57:54;;;;;;;;;;;17.80;92.60;;;;;;5107842;28;19930;-38
2022/11/21 05:00:20;;;;;;;;;;;17.80;92.50;;;;;;5114423;28;20421;-38
2022/11/21 05:02:45;;;;;;;;;;;17.80;92.60;;;;;;5101629;28;19908;-39
2022/11/21 05:05:11;;;;;;;;;;;17.80;92.50;;;;;;5110701;28;19916;-38
2022/11/21 05:07:37;;;;;;;;;;;17.80;92.50;;;;;;5112097;28;19908;-38
2022/11/21 05:10:03;;;;;;;;;;;17.80;92.80;;;;;;5109757;28;19920;-39
2022/11/21 05:15:13;;;;;;;;;;;17.80;92.60;;;;;;5111653;28;19960;-38
2022/11/21 05:17:38;;;;;;;;;;;17.80;92.60;;;;;;5114464;28;20011;-38
2022/11/21 05:20:04;;;;;;;;;;;17.80;92.60;;;;;;5114348;28;19915;-38
2022/11/21 05:22:29;;;;;;;;;;;17.80;92.60;;;;;;5109047;28;19918;-38
2022/11/21 05:24:55;;;;;;;;;;;17.80;92.70;;;;;;5096066;28;19912;-38
2022/11/21 05:27:20;;;;;;;;;;;17.80;92.50;;;;;;5111920;28;19989;-38
2022/11/21 05:29:46;;;;;;;;;;;17.80;92.50;;;;;;5114323;28;19987;-45
2022/11/21 05:32:11;;;;;;;;;;;17.80;92.50;;;;;;5106546;28;19938;-38
2022/11/21 05:34:37;;;;;;;;;;;17.80;92.50;;;;;;5114316;28;19919;-38
2022/11/21 05:37:03;;;;;;;;;;;17.80;92.50;;;;;;5104242;28;19919;-38
2022/11/21 05:39:28;;;;;;;;;;;17.80;92.50;;;;;;5109787;28;19965;-38
2022/11/21 05:41:54;;;;;;;;;;;17.80;92.50;;;;;;5114134;28;19907;-38
2022/11/21 05:44:19;;;;;;;;;;;17.80;92.60;;;;;;5110734;28;19916;-38
2022/11/21 05:46:45;;;;;;;;;;;17.80;92.60;;;;;;5111107;28;19912;-38
2022/11/21 05:49:10;;;;;;;;;;;17.80;92.60;;;;;;5111338;28;19965;-38
2022/11/21 05:51:36;;;;;;;;;;;17.80;92.60;;;;;;5113785;28;19912;-38
2022/11/21 05:54:02;;;;;;;;;;;17.80;92.60;;;;;;5100748;28;20389;-38
2022/11/21 05:56:27;;;;;;;;;;;17.80;92.70;;;;;;5113727;28;20328;-38
2022/11/21 05:58:53;;;;;;;;;;;17.80;92.60;;;;;;5090674;28;19912;-38
2022/11/21 06:03:25;;;;;;;;;;;17.80;92.60;;;;;;5105611;28;20000;-38
2022/11/21 06:04:04;;;;;;;;;;;17.80;92.60;;;;;;5114016;28;19912;-38
2022/11/21 06:06:30;;;;;;;;;;;17.80;92.70;;;;;;5111371;28;20323;-38
2022/11/21 06:08:55;;;;;;;;;;;17.80;92.60;;;;;;5113775;28;19966;-38
2022/11/21 06:11:21;;;;;;;;;;;17.80;92.70;;;;;;5106646;28;19972;-38
2022/11/21 06:13:46;;;;;;;;;;;17.80;92.60;;;;;;5113686;28;19908;-38
2022/11/21 06:16:13;;;;;;;;;;;17.80;92.60;;;;;;5104720;28;19912;-38
2022/11/21 06:18:40;;;;;;;;;;;17.80;92.60;;;;;;5113762;28;20259;-38
2022/11/21 06:21:06;;;;;;;;;;;17.80;92.70;;;;;;5111381;28;19959;-38
2022/11/21 06:23:32;;;;;;;;;;;17.80;92.70;;;;;;5104113;28;20007;-38
2022/11/21 06:25:58;;;;;;;;;;;17.80;92.70;;;;;;5114979;28;19963;-38
2022/11/21 06:28:25;;;;;;;;;;;17.70;92.60;;;;;;5110652;28;20362;-38
2022/11/21 06:30:50;;;;;;;;;;;17.80;92.70;;;;;;5109570;28;19963;-38
2022/11/21 06:33:16;;;;;;;;;;;17.70;92.70;;;;;;5116918;28;19924;-38
2022/11/21 06:35:42;;;;;;;;;;;17.70;92.70;;;;;;5114635;28;19908;-38
2022/11/21 06:38:07;;;;;;;;;;;17.80;92.70;;;;;;5106974;28;19923;-38
2022/11/21 06:40:33;;;;;;;;;;;17.80;92.70;;;;;;5114997;28;19914;-41
2022/11/21 06:42:58;;;;;;;;;;;17.80;92.70;;;;;;5116430;28;19920;-38
2022/11/21 06:45:24;;;;;;;;;;;17.80;92.70;;;;;;5110099;28;19916;-38
2022/11/21 06:47:49;;;;;;;;;;;17.80;92.70;;;;;;5110161;28;19965;-39
2022/11/21 06:50:15;;;;;;;;;;;17.80;92.70;;;;;;5109661;28;19912;-50
2022/11/21 06:52:41;;;;;;;;;;;17.80;92.70;;;;;;5110788;28;19911;-38
2022/11/21 06:55:07;;;;;;;;;;;17.80;92.70;;;;;;5089997;28;19912;-38
2022/11/21 06:57:32;;;;;;;;;;;17.80;92.60;;;;;;5096039;28;19908;-39
2022/11/21 06:59:58;;;;;;;;;;;17.80;92.70;;;;;;5103532;28;19919;-38
2022/11/21 07:02:23;;;;;;;;;;;17.90;92.70;;;;;;5106073;28;19912;-38
2022/11/21 07:04:49;;;;;;;;;;;17.90;92.60;;;;;;5104910;28;19969;-39
2022/11/21 07:07:14;;;;;;;;;;;17.90;92.60;;;;;;5116509;28;19912;-38
2022/11/21 07:09:43;;;;;;;;;;;18.00;92.70;;;;;;5109357;28;19955;-39
2022/11/21 07:14:53;;;;;;;;;;;18.00;92.80;;;;;;5105257;28;20006;-40
2022/11/21 07:17:18;;;;;;;;;;;18.00;92.60;;;;;;5100984;28;20376;-44
2022/11/21 07:19:44;;;;;;;;;;;17.90;92.30;;;;;;5113249;28;19931;-40
2022/11/21 07:22:09;;;;;;;;;;;17.90;91.90;;;;;;5102164;28;19963;-40
2022/11/21 07:24:34;;;;;;;;;;;17.90;91.90;;;;;;5094062;28;20273;-40
2022/11/21 07:27:00;;;;;;;;;;;17.90;91.80;;;;;;5109827;28;19916;-41
2022/11/21 07:29:26;;;;;;;;;;;17.90;91.80;;;;;;5109610;28;19912;-41
2022/11/21 07:31:51;;;;;;;;;;;17.80;91.70;;;;;;5110314;28;19913;-41
2022/11/21 07:34:17;;;;;;;;;;;17.60;90.80;;;;;;5105491;28;19916;-41
2022/11/21 07:36:42;;;;;;;;;;;17.60;91.50;;;;;;5109088;28;19912;-41
2022/11/21 07:39:08;;;;;;;;;;;17.70;92.10;;;;;;5104296;28;20297;-41
2022/11/21 07:41:33;;;;;;;;;;;17.70;92.20;;;;;;5099282;28;19912;-45
2022/11/21 07:43:59;;;;;;;;;;;17.80;92.30;;;;;;5101032;28;20381;-41
2022/11/21 07:46:24;;;;;;;;;;;17.80;92.10;;;;;;5114801;28;19916;-41
2022/11/21 07:48:50;;;;;;;;;;;17.90;91.90;;;;;;5093277;28;19908;-40
2022/11/21 07:51:15;;;;;;;;;;;18.00;92.00;;;;;;5115667;28;20002;-40
2022/11/21 07:53:40;;;;;;;;;;;18.00;92.00;;;;;;5112103;28;19907;-41
2022/11/21 07:56:08;;;;;;;;;;;18.10;91.90;;;;;;5109882;28;20056;-41
2022/11/21 07:58:34;;;;;;;;;;;18.20;92.00;;;;;;5094675;28;20342;-41
2022/11/21 08:01:04;;;;;;;;;;;18.40;91.70;;;;;;5115751;28;19904;-41
2022/11/21 08:03:29;;;;;;;;;;;18.60;91.50;;;;;;5112299;28;19995;-40
2022/11/21 08:05:55;;;;;;;;;;;18.80;91.20;;;;;;5097031;28;20303;-40
2022/11/21 08:08:20;;;;;;;;;;;19.10;90.90;;;;;;5106595;28;19916;-40
2022/11/21 08:10:46;;;;;;;;;;;19.30;90.40;;;;;;5115687;28;20399;-40
2022/11/21 08:13:12;;;;;;;;;;;19.40;89.60;;;;;;5084424;28;19920;-40
2022/11/21 08:15:38;;;;;;;;;;;19.60;89.40;;;;;;5095009;28;20321;-40
2022/11/21 08:18:13;;;;;;;;;;;19.70;89.20;;;;;;5089232;28;20406;-40
2022/11/21 08:20:39;;;;;;;;;;;19.80;89.10;;;;;;5099286;28;19950;-40
2022/11/21 08:23:05;;;;;;;;;;;19.90;88.90;;;;;;5115249;28;19931;-41
2022/11/21 08:25:31;;;;;;;;;;;20.00;88.80;;;;;;5112155;28;20005;-40
2022/11/21 08:27:57;;;;;;;;;;;20.00;88.70;;;;;;5108463;28;19908;-47
2022/11/21 08:30:23;;;;;;;;;;;20.00;88.70;;;;;;5090062;28;19908;-41
2022/11/21 08:32:48;;;;;;;;;;;20.10;88.60;;;;;;5102575;28;19955;-40
2022/11/21 08:35:14;;;;;;;;;;;20.10;88.40;;;;;;5114566;28;19968;-41
2022/11/21 08:37:39;;;;;;;;;;;20.20;88.40;;;;;;5109068;28;19933;-40
2022/11/21 08:40:05;;;;;;;;;;;20.20;88.40;;;;;;5114380;28;19904;-41
2022/11/21 08:42:31;;;;;;;;;;;20.20;88.40;;;;;;5087691;28;19908;-40
2022/11/21 08:44:56;;;;;;;;;;;20.20;88.30;;;;;;5112010;28;19919;-41
2022/11/21 08:47:22;;;;;;;;;;;20.20;88.20;;;;;;5114298;28;19908;-44
2022/11/21 08:49:47;;;;;;;;;;;20.20;88.20;;;;;;5111679;28;19912;-43
2022/11/21 08:52:13;;;;;;;;;;;20.20;88.20;;;;;;5114509;28;19939;-40
2022/11/21 08:54:39;;;;;;;;;;;20.20;88.10;;;;;;5112066;28;19933;-40
2022/11/21 08:57:04;;;;;;;;;;;20.20;88.20;;;;;;5114937;28;19949;-41
2022/11/21 08:59:29;;;;;;;;;;;20.20;88.20;;;;;;5106792;28;19914;-41
2022/11/21 09:01:56;;;;;;;;;;;20.20;88.20;;;;;;5096105;28;20262;-40
2022/11/21 09:04:21;;;;;;;;;;;20.20;88.40;;;;;;5098145;28;19999;-41
2022/11/21 09:06:47;;;;;;;;;;;20.20;88.30;;;;;;5102972;28;19966;-40
2022/11/21 09:09:12;;;;;;;;;;;20.10;88.30;;;;;;5104607;28;19923;-40
2022/11/21 09:11:38;;;;;;;;;;;20.20;88.50;;;;;;5114547;28;19911;-40
2022/11/21 09:19:31;;;;;;;;;;;20.10;88.70;;;;;;5108709;28;19965;-43
2022/11/21 09:21:57;;;;;;;;;;;20.10;88.70;;;;;;5105071;28;19916;-42
2022/11/21 09:24:22;;;;;;;;;;;20.10;88.60;;;;;;5099576;28;20377;-43
2022/11/21 09:26:48;;;;;;;;;;;20.10;88.40;;;;;;5113177;28;19912;-41
2022/11/21 09:29:14;;;;;;;;;;;20.10;88.40;;;;;;5105277;28;20364;-41
2022/11/21 09:31:40;;;;;;;;;;;20.10;88.40;;;;;;5106722;28;19916;-42
2022/11/21 09:34:06;;;;;;;;;;;20.10;88.70;;;;;;5100504;28;19919;-41
2022/11/21 09:36:31;;;;;;;;;;;20.10;88.70;;;;;;5095969;28;20284;-42
2022/11/21 09:38:57;;;;;;;;;;;20.10;88.70;;;;;;5094908;28;19912;-41
2022/11/21 09:44:18;;;;;;;;;;;20.10;88.80;;;;;;5092994;28;19968;-49
2022/11/21 09:46:48;;;;;;;;;;;20.10;88.80;;;;;;5112830;28;19980;-41
2022/11/21 09:49:15;;;;;;;;;;;20.10;88.70;;;;;;5107066;28;19946;-41
2022/11/21 09:51:42;;;;;;;;;;;20.10;88.70;;;;;;5110449;28;20267;-41
2022/11/21 09:54:10;;;;;;;;;;;20.10;88.70;;;;;;5112427;28;19914;-43
2022/11/21 09:56:38;;;;;;;;;;;20.10;88.70;;;;;;5111642;28;19915;-44
2022/11/21 09:59:13;;;;;;;;;;;20.10;88.70;;;;;;5112544;28;19927;-42
2022/11/21 10:01:39;;;;;;;;;;;20.20;88.70;;;;;;5112842;28;19920;-45
2022/11/21 10:04:04;;;;;;;;;;;20.20;88.70;;;;;;5117914;28;19914;-43
2022/11/21 10:06:41;;;;;;;;;;;20.20;88.60;;;;;;5113204;28;19912;-46
2022/11/21 10:09:26;;;;;;;;;;;20.20;88.60;;;;;;5117722;28;19920;-43
2022/11/21 10:15:10;;;;;;;;;;;20.20;88.60;;;;;;5117674;28;19960;-40
2022/11/21 10:17:39;;;;;;;;;;;20.20;88.60;;;;;;5105784;28;19953;-42
2022/11/21 10:20:23;;;;;;;;;;;20.20;88.70;;;;;;5117459;28;20305;-42
2022/11/21 10:22:50;;;;;;;;;;;20.30;88.60;;;;;;5114019;28;19907;-42
2022/11/21 10:25:36;;;;;;;;;;;20.20;88.50;;;;;;5113370;28;19939;-41
2022/11/21 10:28:26;;;;;;;;;;;20.20;88.60;;;;;;5111764;28;19912;-42
2022/11/21 10:30:53;;;;;;;;;;;20.20;88.60;;;;;;5099864;28;19907;-41
2022/11/21 10:33:33;;;;;;;;;;;20.20;88.70;;;;;;5113080;28;20357;-41
2022/11/21 10:36:04;;;;;;;;;;;20.20;88.70;;;;;;5112294;28;19955;-42
2022/11/21 10:38:34;;;;;;;;;;;20.20;88.70;;;;;;5113142;28;19907;-42
2022/11/21 10:41:05;;;;;;;;;;;20.20;88.70;;;;;;5114878;28;19915;-42
2022/11/21 10:46:18;;;;;;;;;;;20.20;88.90;;;;;;5076402;28;20397;-51
2022/11/21 10:49:10;;;;;;;;;;;20.20;88.80;;;;;;5105912;28;19912;-53
2022/11/21 10:51:41;;;;;;;;;;;20.20;88.70;;;;;;5109020;28;20310;-53
2022/11/21 10:56:52;;;;;;;;;;;20.20;88.70;;;;;;5108095;28;19927;-44
2022/11/21 10:59:21;;;;;;;;;;;20.30;88.70;;;;;;5116959;28;19916;-42
2022/11/21 11:01:53;;;;;;;;;;;20.30;88.60;;;;;;5104603;28;19908;-45
2022/11/21 11:04:20;;;;;;;;;;;20.30;88.60;;;;;;5084449;28;19965;-44
2022/11/21 11:06:46;;;;;;;;;;;20.30;88.40;;;;;;5094366;28;20262;-45
2022/11/21 11:09:22;;;;;;;;;;;20.30;88.50;;;;;;5093247;28;20227;-43
2022/11/21 11:11:47;;;;;;;;;;;20.30;88.40;;;;;;5084535;28;19911;-42
2022/11/21 11:14:14;;;;;;;;;;;20.40;88.50;;;;;;5116587;28;19911;-42
2022/11/21 11:16:44;;;;;;;;;;;20.40;88.90;;;;;;5114163;28;20346;-42
2022/11/21 11:19:12;;;;;;;;;;;20.40;88.70;;;;;;5110415;28;19957;-44
2022/11/21 11:21:40;;;;;;;;;;;20.40;88.60;;;;;;5116751;28;20356;-44
2022/11/21 11:24:09;;;;;;;;;;;20.40;88.50;;;;;;5111363;28;19919;-42
2022/11/21 11:26:46;;;;;;;;;;;20.40;88.70;;;;;;5116134;28;19914;-45
2022/11/21 11:29:16;;;;;;;;;;;20.40;88.60;;;;;;5110858;28;19908;-45
2022/11/21 11:31:41;;;;;;;;;;;20.40;88.60;;;;;;5116239;28;19908;-43
2022/11/21 11:34:10;;;;;;;;;;;20.40;88.60;;;;;;5107552;28;19918;-50
2022/11/21 11:36:38;;;;;;;;;;;20.30;88.60;;;;;;5113892;28;19927;-44
2022/11/21 11:39:08;;;;;;;;;;;20.40;88.70;;;;;;5104031;28;20317;-44
2022/11/21 11:47:31;;;;;;;;;;;20.30;88.80;;;;;;5106865;28;19957;-46
2022/11/21 11:50:18;;;;;;;;;;;20.30;89.00;;;;;;5115810;28;19904;-44
2022/11/21 11:52:59;;;;;;;;;;;20.20;89.00;;;;;;5109656;28;20355;-45
2022/11/21 11:55:30;;;;;;;;;;;20.20;88.90;;;;;;5112952;28;20006;-44
2022/11/21 11:57:57;;;;;;;;;;;20.20;89.30;;;;;;5115546;28;19904;-46
2022/11/21 12:00:40;;;;;;;;;;;20.20;89.40;;;;;;5113019;28;19990;-44
2022/11/21 12:03:11;;;;;;;;;;;20.30;89.30;;;;;;5093457;28;20407;-44
2022/11/21 12:05:40;;;;;;;;;;;20.30;89.10;;;;;;5109722;28;20417;-45
2022/11/21 12:08:13;;;;;;;;;;;20.30;89.10;;;;;;5091311;28;19912;-46
2022/11/21 12:12:05;;;;;;;;;;;20.30;89.00;;;;;;5113350;28;19998;-43
2022/11/21 12:13:28;;;;;;;;;;;20.40;89.00;;;;;;5091650;28;19962;-45
2022/11/21 12:15:56;;;;;;;;;;;20.40;88.90;;;;;;5111683;28;19916;-45
2022/11/21 12:18:25;;;;;;;;;;;20.40;88.80;;;;;;5102403;28;20003;-46
2022/11/21 12:20:54;;;;;;;;;;;20.40;89.00;;;;;;5114796;28;20291;-45
2022/11/21 12:23:22;;;;;;;;;;;20.50;89.10;;;;;;5094119;28;19907;-45
2022/11/21 12:25:54;;;;;;;;;;;20.50;88.90;;;;;;5114724;28;19922;-43
2022/11/21 12:28:26;;;;;;;;;;;20.50;88.80;;;;;;5112513;28;19915;-45
2022/11/21 12:30:59;;;;;;;;;;;20.50;88.80;;;;;;5108109;28;19991;-45
2022/11/21 12:33:24;;;;;;;;;;;20.60;88.80;;;;;;5111253;28;19908;-45
2022/11/21 12:35:56;;;;;;;;;;;20.50;88.70;;;;;;5108541;28;19914;-46
2022/11/21 12:38:24;;;;;;;;;;;20.60;89.10;;;;;;5112453;28;19915;-44
2022/11/21 12:44:12;;;;;;;;;;;20.60;88.80;;;;;;5085890;28;20396;-47
2022/11/21 12:46:37;;;;;;;;;;;20.50;88.70;;;;;;5103479;28;20344;-43
2022/11/21 12:55:04;;;;;;;;;;;20.50;88.70;;;;;;5089275;28;19919;-43
2022/11/21 12:57:35;;;;;;;;;;;20.50;88.70;;;;;;5093836;28;19908;-44
2022/11/21 13:00:04;;;;;;;;;;;20.50;88.70;;;;;;5094091;28;19908;-43
2022/11/21 13:02:48;;;;;;;;;;;20.50;88.70;;;;;;5091298;28;20061;-42
2022/11/21 13:05:17;;;;;;;;;;;20.50;88.70;;;;;;5111428;28;19923;-42
2022/11/21 13:07:44;;;;;;;;;;;20.50;88.70;;;;;;5104389;28;19940;-41
2022/11/21 13:10:12;;;;;;;;;;;20.50;88.70;;;;;;5112519;28;19951;-43
2022/11/21 13:12:50;;;;;;;;;;;20.50;88.60;;;;;;5113103;28;19916;-41
2022/11/21 13:15:16;;;;;;;;;;;20.50;88.60;;;;;;5108951;28;20049;-42
2022/11/21 13:17:44;;;;;;;;;;;20.50;88.60;;;;;;5098119;28;19991;-43
2022/11/21 13:20:16;;;;;;;;;;;20.40;88.60;;;;;;5107872;28;19960;-44
2022/11/21 13:22:42;;;;;;;;;;;20.50;88.80;;;;;;5104394;28;19912;-46
2022/11/21 13:25:26;;;;;;;;;;;20.50;88.70;;;;;;5110678;28;19919;-48
2022/11/21 13:27:53;;;;;;;;;;;20.50;88.70;;;;;;5103954;28;20006;-46
2022/11/21 13:30:21;;;;;;;;;;;20.50;88.70;;;;;;5108967;28;20376;-44
2022/11/21 13:32:53;;;;;;;;;;;20.50;88.70;;;;;;5100803;28;20278;-47
2022/11/21 13:35:19;;;;;;;;;;;20.50;88.70;;;;;;5102003;28;20294;-41
2022/11/21 13:37:53;;;;;;;;;;;20.50;88.90;;;;;;5100769;28;19913;-41
2022/11/21 13:40:30;;;;;;;;;;;20.50;89.00;;;;;;5112567;28;19912;-42
2022/11/21 13:43:08;;;;;;;;;;;20.50;89.00;;;;;;5086319;28;19912;-42
2022/11/21 13:45:42;;;;;;;;;;;20.50;88.90;;;;;;5097879;28;19961;-41
2022/11/21 13:48:26;;;;;;;;;;;20.50;88.80;;;;;;5104630;28;20382;-43
2022/11/21 13:51:10;;;;;;;;;;;20.50;88.70;;;;;;5117075;28;19908;-44
2022/11/21 13:53:46;;;;;;;;;;;20.50;88.90;;;;;;5101536;28;19912;-45
2022/11/21 13:56:11;;;;;;;;;;;20.50;88.90;;;;;;5117993;28;19908;-41
2022/11/21 13:58:46;;;;;;;;;;;20.50;88.90;;;;;;5112907;28;19919;-41
2022/11/21 14:01:30;;;;;;;;;;;20.50;88.90;;;;;;5098540;28;19909;-41
2022/11/21 14:04:08;;;;;;;;;;;20.50;88.90;;;;;;5097511;28;20007;-40
2022/11/21 14:06:36;;;;;;;;;;;20.50;89.00;;;;;;5100733;28;19966;-41
2022/11/21 14:09:19;;;;;;;;;;;20.50;89.00;;;;;;5117616;28;19920;-41
2022/11/21 14:11:48;;;;;;;;;;;20.50;89.00;;;;;;5106929;28;20011;-42
2022/11/21 14:14:24;;;;;;;;;;;20.50;89.00;;;;;;5100086;28;19912;-41
2022/11/21 14:16:53;;;;;;;;;;;20.50;89.20;;;;;;5102266;28;19912;-42
2022/11/21 14:19:19;;;;;;;;;;;20.50;89.20;;;;;;5096767;28;19961;-41
2022/11/21 14:21:45;;;;;;;;;;;20.40;89.20;;;;;;5097274;28;19908;-42
2022/11/21 14:24:17;;;;;;;;;;;20.40;89.30;;;;;;5103831;28;19912;-42
2022/11/21 14:26:44;;;;;;;;;;;20.40;89.40;;;;;;5105297;28;20476;-42
2022/11/21 14:29:21;;;;;;;;;;;20.30;89.60;;;;;;5116222;28;20266;-43
2022/11/21 14:31:47;;;;;;;;;;;20.30;89.50;;;;;;5104621;28;19912;-44
2022/11/21 14:34:22;;;;;;;;;;;20.30;89.50;;;;;;5105866;28;19912;-41
2022/11/21 14:36:47;;;;;;;;;;;20.30;89.60;;;;;;5117327;28;19998;-42
2022/11/21 14:39:15;;;;;;;;;;;20.40;89.60;;;;;;5116881;28;20396;-41
2022/11/21 14:41:41;;;;;;;;;;;20.40;89.60;;;;;;5117218;28;19950;-42
2022/11/21 14:44:07;;;;;;;;;;;20.40;89.60;;;;;;5104706;28;20381;-41
2022/11/21 14:46:36;;;;;;;;;;;20.40;89.50;;;;;;5095777;28;19961;-42
2022/11/21 14:49:11;;;;;;;;;;;20.50;89.50;;;;;;5107667;28;19999;-42
2022/11/21 14:51:36;;;;;;;;;;;20.50;89.40;;;;;;5112624;28;19935;-39
2022/11/21 14:54:02;;;;;;;;;;;20.50;89.20;;;;;;5111001;28;19928;-41
2022/11/21 14:56:29;;;;;;;;;;;20.50;89.20;;;;;;5108165;28;19923;-42